createdAt,value
2023-01-17T00:00:26.547Z,7.70
2023-01-17T00:03:15.062Z,7.70
2023-01-17T00:06:23.218Z,7.70
2023-01-17T00:09:31.866Z,7.70
2023-01-17T00:12:21.404Z,7.60
2023-01-17T00:15:11.297Z,7.40
2023-01-17T00:18:00.218Z,7.30
2023-01-17T00:21:08.164Z,7.40
2023-01-17T00:24:13.952Z,7.40
2023-01-17T00:27:14.760Z,7.30
2023-01-17T00:30:02.151Z,7.40
2023-01-17T00:32:49.651Z,7.40
2023-01-17T00:35:36.976Z,7.40
2023-01-17T00:38:25.993Z,7.30
2023-01-17T00:41:14.848Z,7.40
2023-01-17T00:44:21.859Z,7.50
2023-01-17T00:47:27.860Z,7.50
2023-01-17T00:50:34.376Z,7.30
2023-01-17T00:53:40.189Z,7.40
2023-01-17T00:56:46.340Z,7.50
2023-01-17T00:59:54.231Z,7.50
2023-01-17T01:03:00.437Z,7.30
2023-01-17T01:06:06.525Z,7.40
2023-01-17T01:09:13.096Z,7.50
2023-01-17T01:12:19.151Z,7.50
2023-01-17T01:15:27.806Z,7.50
2023-01-17T01:18:33.697Z,7.60
2023-01-17T01:21:39.196Z,7.60
2023-01-17T01:24:44.909Z,7.60
2023-01-17T01:27:50.927Z,7.60
2023-01-17T01:30:58.016Z,7.60
2023-01-17T01:33:46.562Z,7.50
2023-01-17T01:36:35.010Z,7.50
2023-01-17T01:39:23.479Z,7.50
2023-01-17T01:42:16.294Z,7.60
2023-01-17T01:45:16.774Z,7.60
2023-01-17T01:48:21.197Z,7.20
2023-01-17T01:51:13.194Z,7.50
2023-01-17T01:54:05.947Z,7.40
2023-01-17T01:56:57.304Z,7.30
2023-01-17T01:59:50.565Z,7.40
2023-01-17T02:02:40.030Z,7.20
2023-01-17T02:05:30.394Z,7.10
2023-01-17T02:08:21.559Z,6.80
2023-01-17T02:11:10.546Z,6.70
2023-01-17T02:13:59.183Z,6.70
2023-01-17T02:17:03.113Z,6.70
2023-01-17T02:20:36.796Z,6.80
2023-01-17T02:24:10.281Z,6.60
2023-01-17T02:27:07.225Z,6.70
2023-01-17T02:30:36.869Z,6.90
2023-01-17T02:33:30.189Z,7.10
2023-01-17T02:36:24.873Z,7.20
2023-01-17T02:39:19.881Z,7.30
2023-01-17T02:42:15.612Z,7.30
2023-01-17T02:45:04.824Z,7.40
2023-01-17T02:47:54.723Z,7.40
2023-01-17T02:50:57.593Z,7.60
2023-01-17T02:54:02.180Z,7.50
2023-01-17T02:57:02.700Z,7.50
2023-01-17T03:00:04.615Z,7.60
2023-01-17T03:03:01.580Z,7.50
2023-01-17T03:05:55.418Z,7.30
2023-01-17T03:08:47.291Z,7.10
2023-01-17T03:11:35.914Z,7.00
2023-01-17T03:14:24.445Z,6.80
2023-01-17T03:17:13.120Z,6.80
2023-01-17T03:20:03.003Z,6.80
2023-01-17T03:22:51.439Z,6.80
2023-01-17T03:25:40.027Z,6.90
2023-01-17T03:28:28.502Z,6.80
2023-01-17T03:31:18.006Z,6.80
2023-01-17T03:34:06.601Z,6.80
2023-01-17T03:36:56.527Z,6.90
2023-01-17T03:39:45.014Z,6.80
2023-01-17T03:42:33.872Z,6.80
2023-01-17T03:45:22.444Z,6.90
2023-01-17T03:48:10.987Z,6.90
2023-01-17T03:51:00.103Z,7.00
2023-01-17T03:53:50.688Z,7.00
2023-01-17T03:56:39.183Z,7.10
2023-01-17T03:59:27.664Z,7.20
2023-01-17T04:02:16.282Z,7.20
2023-01-17T04:05:05.371Z,7.20
2023-01-17T04:07:53.848Z,7.30
2023-01-17T04:10:43.622Z,7.30
2023-01-17T04:13:32.097Z,7.30
2023-01-17T04:16:21.862Z,7.40
2023-01-17T04:19:12.178Z,7.40
2023-01-17T04:22:00.695Z,7.30
2023-01-17T04:24:49.248Z,7.10
2023-01-17T04:27:39.074Z,7.10
2023-01-17T04:30:29.381Z,7.10
2023-01-17T04:33:18.320Z,7.20
2023-01-17T04:36:07.739Z,7.20
2023-01-17T04:38:56.295Z,7.20
2023-01-17T04:41:45.016Z,7.20
2023-01-17T04:44:34.928Z,7.10
2023-01-17T04:47:23.525Z,7.20
2023-01-17T04:50:12.746Z,7.20
2023-01-17T04:53:01.806Z,7.20
2023-01-17T04:55:50.288Z,7.10
2023-01-17T04:58:38.846Z,7.10
2023-01-17T05:01:28.843Z,7.20
2023-01-17T05:04:17.514Z,7.20
2023-01-17T05:07:06.275Z,7.10
2023-01-17T05:09:54.729Z,6.90
2023-01-17T05:12:43.241Z,6.80
2023-01-17T05:15:32.206Z,5.80
2023-01-17T05:18:22.133Z,6.80
2023-01-17T05:21:10.664Z,6.80
2023-01-17T05:23:59.279Z,6.90
2023-01-17T05:26:54.662Z,6.90
2023-01-17T05:29:43.386Z,6.60
2023-01-17T05:32:31.948Z,6.70
2023-01-17T05:35:24.136Z,6.40
2023-01-17T05:38:12.681Z,6.30
2023-01-17T05:41:01.612Z,6.50
2023-01-17T05:43:50.118Z,6.70
2023-01-17T05:46:38.834Z,6.70
2023-01-17T05:49:27.335Z,6.80
2023-01-17T05:52:17.266Z,6.80
2023-01-17T05:55:07.503Z,6.90
2023-01-17T05:57:56.656Z,7.00
2023-01-17T06:00:45.279Z,6.80
2023-01-17T06:03:33.872Z,6.90
2023-01-17T06:06:22.701Z,7.00
2023-01-17T06:09:12.878Z,7.00
2023-01-17T06:12:01.536Z,7.00
2023-01-17T06:14:50.097Z,7.00
2023-01-17T06:17:38.666Z,7.00
2023-01-17T06:20:27.409Z,7.10
2023-01-17T06:23:16.435Z,7.00
2023-01-17T06:26:08.429Z,7.00
2023-01-17T06:28:56.907Z,7.00
2023-01-17T06:34:34.174Z,7.10
2023-01-17T06:37:22.700Z,7.00
2023-01-17T06:40:12.734Z,7.00
2023-01-17T06:43:03.396Z,6.90
2023-01-17T06:45:52.051Z,6.90
2023-01-17T06:48:40.541Z,6.90
2023-01-17T06:51:29.066Z,6.90
2023-01-17T06:54:18.920Z,6.90
2023-01-17T06:57:07.383Z,6.90
2023-01-17T06:59:57.270Z,6.90
2023-01-17T07:02:47.927Z,7.00
2023-01-17T07:05:36.590Z,7.00
2023-01-17T07:08:25.148Z,7.00
2023-01-17T07:11:13.641Z,7.00
2023-01-17T07:14:02.046Z,7.00
2023-01-17T07:16:52.143Z,7.00
2023-01-17T07:19:40.654Z,7.10
2023-01-17T07:22:29.292Z,7.10
2023-01-17T07:25:18.013Z,7.10
2023-01-17T07:28:06.493Z,7.10
2023-01-17T07:30:55.708Z,7.20
2023-01-17T07:33:45.749Z,7.20
2023-01-17T07:36:34.195Z,7.20
2023-01-17T07:39:22.749Z,7.20
2023-01-17T07:42:11.243Z,7.20
2023-01-17T07:45:00.672Z,7.20
2023-01-17T07:47:50.121Z,7.10
2023-01-17T07:50:40.413Z,7.10
2023-01-17T07:53:30.857Z,7.10
2023-01-17T07:56:19.387Z,7.00
2023-01-17T07:59:07.902Z,7.00
2023-01-17T08:01:56.409Z,6.90
2023-01-17T08:04:45.099Z,6.90
2023-01-17T08:07:35.097Z,6.90
2023-01-17T08:10:23.848Z,6.90
2023-01-17T08:13:12.349Z,7.00
2023-01-17T08:16:02.518Z,7.00
2023-01-17T08:18:51.088Z,7.00
2023-01-17T08:21:39.643Z,7.00
2023-01-17T08:24:29.786Z,7.00
2023-01-17T08:27:18.405Z,7.00
2023-01-17T08:30:08.459Z,7.00
2023-01-17T08:32:57.126Z,6.90
2023-01-17T08:35:53.477Z,6.90
2023-01-17T08:38:42.028Z,7.00
2023-01-17T08:41:32.290Z,7.10
2023-01-17T08:44:20.930Z,7.00
2023-01-17T08:47:09.484Z,7.00
2023-01-17T08:49:59.512Z,7.00
2023-01-17T08:52:49.505Z,7.00
2023-01-17T08:55:40.939Z,7.00
2023-01-17T08:58:33.028Z,7.00
2023-01-17T09:01:21.713Z,7.10
2023-01-17T09:04:10.674Z,7.10
2023-01-17T09:06:59.316Z,7.10
2023-01-17T09:09:48.359Z,7.10
2023-01-17T09:12:37.080Z,7.20
2023-01-17T09:15:26.977Z,7.60
2023-01-17T09:18:15.417Z,8.20
2023-01-17T09:21:11.509Z,8.70
2023-01-17T09:24:00.096Z,8.80
2023-01-17T09:26:48.700Z,8.60
2023-01-17T09:29:37.277Z,8.30
2023-01-17T09:32:27.276Z,8.00
2023-01-17T09:35:18.366Z,7.80
2023-01-17T09:40:55.680Z,7.60
2023-01-17T09:43:50.119Z,7.50
2023-01-17T09:46:42.316Z,7.50
2023-01-17T09:49:38.022Z,7.50
2023-01-17T09:52:27.865Z,7.50
2023-01-17T09:55:18.104Z,7.40
2023-01-17T09:58:13.149Z,7.40
2023-01-17T10:01:09.827Z,7.40
2023-01-17T10:04:13.216Z,7.30
2023-01-17T10:07:15.664Z,7.30
2023-01-17T10:10:20.549Z,7.30
2023-01-17T10:13:21.801Z,7.30
2023-01-17T10:16:25.801Z,7.40
2023-01-17T10:19:37.487Z,7.30
2023-01-17T10:22:42.986Z,7.40
2023-01-17T10:25:43.740Z,7.40
2023-01-17T10:28:36.663Z,7.40
2023-01-17T10:31:27.072Z,7.40
2023-01-17T10:34:20.717Z,7.40
2023-01-17T10:37:18.926Z,7.40
2023-01-17T10:40:18.787Z,7.40
2023-01-17T10:43:16.449Z,7.40
2023-01-17T10:46:05.245Z,7.40
2023-01-17T10:48:54.374Z,7.40
2023-01-17T10:52:01.364Z,7.40
2023-01-17T10:55:04.136Z,7.40
2023-01-17T10:57:54.916Z,7.50
2023-01-17T11:00:50.392Z,7.50
2023-01-17T11:03:39.451Z,7.50
2023-01-17T11:06:29.091Z,7.50
2023-01-17T11:09:17.653Z,7.60
2023-01-17T11:12:06.470Z,7.60
2023-01-17T11:15:04.123Z,7.60
2023-01-17T11:18:04.656Z,7.70
2023-01-17T11:20:53.183Z,7.70
2023-01-17T11:23:45.186Z,7.60
2023-01-17T11:26:37.148Z,7.50
2023-01-17T11:29:36.815Z,7.50
2023-01-17T11:32:34.806Z,7.60
2023-01-17T11:35:26.120Z,7.60
2023-01-17T11:38:20.451Z,7.70
2023-01-17T11:41:23.356Z,7.70
2023-01-17T11:44:28.239Z,7.70
2023-01-17T11:47:19.417Z,7.70
2023-01-17T11:50:25.008Z,7.80
2023-01-17T11:53:21.302Z,7.80
2023-01-17T11:56:12.175Z,7.90
2023-01-17T11:59:27.590Z,7.90
2023-01-17T12:02:51.790Z,7.90
2023-01-17T12:05:54.499Z,7.90
2023-01-17T12:08:56.558Z,7.90
2023-01-17T12:12:24.869Z,7.90
2023-01-17T12:15:30.219Z,7.90
2023-01-17T12:18:40.050Z,7.90
2023-01-17T12:21:38.881Z,7.90
2023-01-17T12:24:51.809Z,8.00
2023-01-17T12:27:49.636Z,8.00
2023-01-17T12:30:52.945Z,8.00
2023-01-17T12:33:48.598Z,7.90
2023-01-17T12:36:44.523Z,7.90
2023-01-17T12:39:38.268Z,7.70
2023-01-17T12:42:31.981Z,7.70
2023-01-17T12:45:25.566Z,7.70
2023-01-17T12:48:17.495Z,7.70
2023-01-17T12:51:14.165Z,7.70
2023-01-17T12:54:13.095Z,7.70
2023-01-17T12:57:07.146Z,7.70
2023-01-17T13:00:02.984Z,7.60
2023-01-17T13:02:58.222Z,7.70
2023-01-17T13:05:50.566Z,7.70
2023-01-17T13:08:46.448Z,7.80
2023-01-17T13:11:44.224Z,7.70
2023-01-17T13:14:33.398Z,7.50
2023-01-17T13:17:35.953Z,7.40
2023-01-17T13:20:31.816Z,7.50
2023-01-17T13:23:30.179Z,7.50
2023-01-17T13:26:30.767Z,7.50
2023-01-17T13:29:32.679Z,7.50
2023-01-17T13:32:43.253Z,7.50
2023-01-17T13:35:42.027Z,7.50
2023-01-17T13:38:57.688Z,7.40
2023-01-17T13:41:51.415Z,7.30
2023-01-17T13:44:41.316Z,7.40
2023-01-17T13:47:41.801Z,7.40
2023-01-17T13:50:51.150Z,7.40
2023-01-17T13:54:00.576Z,7.50
2023-01-17T13:56:49.076Z,7.50
2023-01-17T13:59:37.558Z,7.50
2023-01-17T14:02:42.285Z,7.60
2023-01-17T14:05:49.318Z,7.60
2023-01-17T14:08:45.069Z,7.70
2023-01-17T14:11:35.521Z,7.70
2023-01-17T14:14:52.115Z,7.70
2023-01-17T14:18:01.076Z,7.70
2023-01-17T14:21:05.562Z,7.70
2023-01-17T14:24:04.065Z,7.70
2023-01-17T14:26:58.943Z,7.80
2023-01-17T14:29:55.971Z,7.80
2023-01-17T14:33:08.712Z,7.80
2023-01-17T14:36:02.007Z,7.70
2023-01-17T14:38:50.513Z,7.80
2023-01-17T14:41:39.123Z,7.80
2023-01-17T14:44:28.194Z,7.80
2023-01-17T14:47:17.862Z,7.80
2023-01-17T14:50:21.696Z,7.80
2023-01-17T14:53:19.910Z,7.80
2023-01-17T14:56:15.925Z,8.50
2023-01-17T14:59:13.135Z,7.80
2023-01-17T15:02:07.921Z,7.90
2023-01-17T15:04:57.267Z,7.80
2023-01-17T15:07:48.614Z,7.80
2023-01-17T15:10:49.167Z,7.90
2023-01-17T15:13:44.712Z,7.80
2023-01-17T15:16:35.354Z,7.80
2023-01-17T15:19:24.420Z,7.80
2023-01-17T15:22:13.772Z,7.90
2023-01-17T15:25:02.758Z,7.90
2023-01-17T15:27:52.884Z,7.90
2023-01-17T15:31:06.945Z,7.90
2023-01-17T15:33:58.579Z,7.90
2023-01-17T15:36:49.807Z,7.90
2023-01-17T15:39:41.372Z,7.90
2023-01-17T15:42:32.366Z,7.80
2023-01-17T15:45:25.689Z,7.70
2023-01-17T15:48:41.858Z,7.60
2023-01-17T15:51:35.136Z,7.70
2023-01-17T15:54:36.820Z,7.80
2023-01-17T15:57:28.236Z,7.80
2023-01-17T16:00:26.370Z,7.80
2023-01-17T16:06:30.856Z,7.30
2023-01-17T16:09:22.304Z,7.30
2023-01-17T16:12:10.816Z,7.30
2023-01-17T16:15:11.853Z,7.30
2023-01-17T16:18:06.533Z,7.30
2023-01-17T16:20:59.996Z,7.30
2023-01-17T16:23:48.836Z,7.30
2023-01-17T16:26:37.408Z,7.10
2023-01-17T16:29:25.994Z,6.90
2023-01-17T16:32:15.503Z,6.60
2023-01-17T16:35:07.621Z,6.70
2023-01-17T16:37:58.374Z,6.90
2023-01-17T16:43:36.174Z,7.20
2023-01-17T16:46:25.769Z,7.30
2023-01-17T16:49:14.344Z,7.40
2023-01-17T16:52:04.488Z,7.40
2023-01-17T16:54:54.071Z,7.40
2023-01-17T16:57:42.905Z,7.50
2023-01-17T17:00:31.507Z,7.50
2023-01-17T17:03:22.015Z,7.60
2023-01-17T17:06:11.290Z,7.60
2023-01-17T17:09:01.625Z,7.70
2023-01-17T17:11:50.210Z,7.70
2023-01-17T17:14:38.712Z,7.70
2023-01-17T17:17:27.284Z,7.70
2023-01-17T17:20:17.568Z,7.80
2023-01-17T17:23:06.018Z,7.80
2023-01-17T17:25:58.641Z,7.80
2023-01-17T17:28:51.459Z,7.80
2023-01-17T17:31:42.341Z,7.80
2023-01-17T17:34:33.969Z,7.80
2023-01-17T17:37:23.584Z,7.70
2023-01-17T17:40:12.766Z,7.70
2023-01-17T17:43:02.860Z,7.70
2023-01-17T17:45:51.427Z,7.60
2023-01-17T17:48:39.983Z,7.60
2023-01-17T17:51:30.662Z,7.60
2023-01-17T17:54:20.068Z,7.60
2023-01-17T17:57:08.700Z,7.60
2023-01-17T17:59:59.842Z,7.70
2023-01-17T18:02:48.422Z,7.70
2023-01-17T18:05:37.034Z,7.60
2023-01-17T18:08:25.631Z,7.70
2023-01-17T18:11:18.554Z,7.60
2023-01-17T18:14:09.521Z,7.60
2023-01-17T18:16:59.391Z,7.60
2023-01-17T18:19:48.183Z,7.60
2023-01-17T18:22:36.720Z,7.60
2023-01-17T18:25:25.328Z,7.50
2023-01-17T18:28:13.924Z,7.60
2023-01-17T18:31:08.954Z,7.60
2023-01-17T18:34:00.633Z,7.60
2023-01-17T18:36:49.257Z,7.60
2023-01-17T18:39:37.748Z,7.60
2023-01-17T18:42:27.460Z,7.60
2023-01-17T18:45:16.065Z,7.60
2023-01-17T18:48:04.853Z,7.60
2023-01-17T18:50:59.021Z,7.60
2023-01-17T18:53:48.086Z,7.60
2023-01-17T18:56:37.117Z,7.60
2023-01-17T18:59:25.921Z,7.50
2023-01-17T19:02:14.596Z,7.50
2023-01-17T19:05:05.567Z,7.50
2023-01-17T19:07:55.857Z,7.50
2023-01-17T19:10:45.082Z,7.50
2023-01-17T19:13:33.943Z,7.50
2023-01-17T19:16:25.656Z,7.60
2023-01-17T19:19:16.026Z,7.50
2023-01-17T19:22:04.539Z,7.50
2023-01-17T19:24:54.924Z,7.50
2023-01-17T19:27:43.882Z,7.50
2023-01-17T19:30:34.374Z,7.50
2023-01-17T19:33:22.877Z,7.50
2023-01-17T19:36:13.499Z,7.40
2023-01-17T19:41:55.453Z,7.20
2023-01-17T19:44:43.952Z,7.20
2023-01-17T19:47:32.568Z,7.00
2023-01-17T19:50:21.230Z,7.00
2023-01-17T19:53:09.711Z,6.90
2023-01-17T19:55:58.197Z,6.90
2023-01-17T19:58:48.979Z,6.90
2023-01-17T20:01:37.539Z,6.90
2023-01-17T20:04:26.081Z,6.90
2023-01-17T20:07:14.571Z,7.00
2023-01-17T20:10:03.202Z,7.00
2023-01-17T20:12:51.715Z,7.00
2023-01-17T20:15:41.562Z,6.90
2023-01-17T20:18:30.088Z,6.80
2023-01-17T20:21:20.293Z,6.80
2023-01-17T20:24:11.328Z,6.80
2023-01-17T20:26:59.874Z,6.80
2023-01-17T20:29:50.398Z,6.80
2023-01-17T20:32:40.273Z,6.80
2023-01-17T20:35:29.755Z,6.70
2023-01-17T20:38:18.448Z,6.60
2023-01-17T20:41:07.202Z,6.60
2023-01-17T20:43:58.065Z,6.60
2023-01-17T20:46:48.174Z,6.70
2023-01-17T20:49:38.240Z,6.70
2023-01-17T20:52:26.821Z,6.70
2023-01-17T20:55:15.560Z,6.70
2023-01-17T20:58:04.154Z,6.80
2023-01-17T21:00:53.150Z,6.80
2023-01-17T21:03:42.385Z,6.80
2023-01-17T21:06:32.361Z,6.80
2023-01-17T21:09:22.147Z,6.90
2023-01-17T21:12:10.576Z,6.90
2023-01-17T21:14:59.075Z,6.90
2023-01-17T21:17:47.520Z,6.90
2023-01-17T21:20:36.465Z,6.90
2023-01-17T21:23:29.312Z,6.80
2023-01-17T21:26:19.045Z,6.80
2023-01-17T21:29:07.597Z,6.80
2023-01-17T21:34:45.014Z,6.40
2023-01-17T21:37:33.500Z,6.20
2023-01-17T21:40:23.344Z,6.30
2023-01-17T21:43:12.665Z,6.40
2023-01-17T21:46:04.686Z,6.00
2023-01-17T21:48:53.580Z,5.90
2023-01-17T21:51:59.647Z,5.90
2023-01-17T21:55:05.705Z,5.90
2023-01-17T21:58:12.946Z,5.90
2023-01-17T22:01:15.726Z,5.60
2023-01-17T22:06:53.752Z,6.00
2023-01-17T22:09:42.411Z,6.10
2023-01-17T22:12:30.885Z,6.20
2023-01-17T22:15:20.701Z,6.30
2023-01-17T22:18:09.800Z,6.30
2023-01-17T22:20:58.684Z,6.20
2023-01-17T22:23:48.229Z,5.90
2023-01-17T22:26:36.814Z,6.00
2023-01-17T22:29:25.408Z,5.80
2023-01-17T22:32:15.256Z,5.60
2023-01-17T22:35:06.720Z,5.70
2023-01-17T22:37:55.456Z,5.60
2023-01-17T22:40:44.012Z,5.40
2023-01-17T22:43:32.507Z,5.50
2023-01-17T22:46:24.966Z,5.80
2023-01-17T22:49:16.923Z,6.00
2023-01-17T22:52:05.816Z,6.10
2023-01-17T22:54:54.373Z,6.20
2023-01-17T22:57:45.855Z,6.30
2023-01-17T23:00:34.320Z,6.20
2023-01-17T23:03:22.859Z,6.10
2023-01-17T23:06:15.210Z,6.20
2023-01-17T23:09:07.067Z,6.40
2023-01-17T23:11:56.351Z,6.40
2023-01-17T23:15:02.332Z,6.50
2023-01-17T23:18:04.760Z,6.60
2023-01-17T23:20:53.246Z,6.60
2023-01-17T23:23:43.155Z,6.60
2023-01-17T23:26:31.631Z,6.70
2023-01-17T23:29:19.247Z,6.70
2023-01-17T23:32:07.780Z,6.70
2023-01-17T23:34:56.299Z,6.70
2023-01-17T23:37:58.717Z,6.70
2023-01-17T23:41:09.664Z,6.70
2023-01-17T23:43:58.695Z,6.70
2023-01-17T23:46:47.198Z,6.60
2023-01-17T23:49:35.836Z,6.50
2023-01-17T23:52:24.373Z,6.40
2023-01-17T23:55:13.634Z,6.10
2023-01-17T23:58:03.657Z,5.80
